createdAt,value
2023-04-10T00:00:33.725Z,146612.16
2023-04-10T00:01:36.580Z,146606.13
2023-04-10T00:02:39.269Z,146612.16
2023-04-10T00:04:57.177Z,146585.59
2023-04-10T00:05:59.770Z,146585.59
2023-04-10T00:07:02.307Z,146583.19
2023-04-10T00:08:04.932Z,146578.38
2023-04-10T00:09:08.049Z,146574.75
2023-04-10T00:10:11.059Z,146578.38
2023-04-10T00:11:13.699Z,146578.38
2023-04-10T00:12:16.335Z,146580.78
2023-04-10T00:13:18.740Z,146586.81
2023-04-10T00:14:23.420Z,146573.53
2023-04-10T00:15:26.091Z,146559.09
2023-04-10T00:16:28.651Z,146548.19
2023-04-10T00:17:31.253Z,146542.19
2023-04-10T00:18:33.736Z,146531.34
2023-04-10T00:19:36.395Z,146532.53
2023-04-10T00:20:38.898Z,146527.72
2023-04-10T00:21:41.690Z,146513.16
2023-04-10T00:22:44.178Z,146521.59
2023-04-10T00:23:46.723Z,146516.78
2023-04-10T00:24:49.221Z,146520.41
2023-04-10T00:25:51.823Z,146522.81
2023-04-10T00:26:54.388Z,146530.13
2023-04-10T00:27:56.908Z,146519.19
2023-04-10T00:28:59.549Z,146503.53
2023-04-10T00:30:02.787Z,146507.16
2023-04-10T00:31:05.788Z,146518.00
2023-04-10T00:32:08.602Z,146507.16
2023-04-10T00:33:11.281Z,146493.91
2023-04-10T00:34:14.273Z,146486.63
2023-04-10T00:35:16.959Z,146496.31
2023-04-10T00:36:19.750Z,146503.53
2023-04-10T00:37:22.350Z,146503.53
2023-04-10T00:38:24.874Z,146514.38
2023-04-10T00:39:27.520Z,146525.28
2023-04-10T00:40:30.541Z,146537.38
2023-04-10T00:41:33.525Z,146539.78
2023-04-10T00:42:36.036Z,146537.38
2023-04-10T00:43:39.401Z,146554.22
2023-04-10T00:44:42.035Z,146555.44
2023-04-10T00:45:44.834Z,146557.88
2023-04-10T00:46:47.323Z,146551.81
2023-04-10T00:47:49.997Z,146573.53
2023-04-10T00:48:53.318Z,146588.00
2023-04-10T00:49:55.968Z,146585.59
2023-04-10T00:50:58.478Z,146592.88
2023-04-10T00:52:01.496Z,146588.00
2023-04-10T00:53:04.242Z,146594.06
2023-04-10T00:54:06.881Z,146596.50
2023-04-10T00:55:11.204Z,146608.53
2023-04-10T00:56:14.561Z,146614.56
2023-04-10T00:57:17.924Z,146635.09
2023-04-10T00:58:20.446Z,146643.53
2023-04-10T00:59:23.204Z,146649.56
2023-04-10T01:00:26.158Z,146650.75
2023-04-10T01:01:28.804Z,146650.75
2023-04-10T01:02:32.489Z,146659.25
2023-04-10T01:03:35.987Z,146660.44
2023-04-10T01:04:39.888Z,146662.84
2023-04-10T01:05:51.646Z,146694.25
2023-04-10T01:07:10.368Z,146680.94
2023-04-10T01:08:39.408Z,146691.81
2023-04-10T01:09:47.716Z,146686.97
2023-04-10T01:11:25.140Z,146699.06
2023-04-10T01:12:56.337Z,146728.03
2023-04-10T01:14:16.613Z,146728.03
2023-04-10T01:15:22.490Z,146720.81
2023-04-10T01:16:34.896Z,146752.13
2023-04-10T01:17:40.564Z,146757.00
2023-04-10T01:19:18.902Z,146742.50
2023-04-10T01:20:24.068Z,146737.66
2023-04-10T01:21:28.255Z,146742.50
2023-04-10T01:22:59.696Z,146755.81
2023-04-10T01:24:29.820Z,146752.13
2023-04-10T01:25:56.459Z,146767.84
2023-04-10T01:27:20.581Z,146754.59
2023-04-10T01:28:51.790Z,146754.59
2023-04-10T01:29:58.025Z,146759.41
2023-04-10T01:31:02.902Z,146773.88
2023-04-10T01:32:11.708Z,146778.72
2023-04-10T01:33:18.925Z,146781.13
2023-04-10T01:34:39.263Z,146793.22
2023-04-10T01:35:44.305Z,146781.13
2023-04-10T01:36:52.270Z,146782.31
2023-04-10T01:37:56.230Z,146761.81
2023-04-10T01:38:59.113Z,146752.13
2023-04-10T01:40:04.150Z,146764.25
2023-04-10T01:41:07.750Z,146750.94
2023-04-10T01:42:14.487Z,146755.81
2023-04-10T01:43:19.874Z,146749.72
2023-04-10T01:44:30.324Z,146769.06
2023-04-10T01:45:33.807Z,146741.28
2023-04-10T01:46:38.520Z,146748.53
2023-04-10T01:47:41.166Z,146713.53
2023-04-10T01:48:45.076Z,146709.91
2023-04-10T01:49:50.119Z,146702.66
2023-04-10T01:50:54.201Z,146684.56
2023-04-10T01:51:58.767Z,146694.25
2023-04-10T01:53:05.970Z,146707.50
2023-04-10T01:54:09.223Z,146686.97
2023-04-10T01:55:12.319Z,146683.34
2023-04-10T01:56:20.613Z,146671.28
2023-04-10T01:57:23.602Z,146667.69
2023-04-10T01:58:29.248Z,146653.16
2023-04-10T01:59:32.966Z,146658.03
2023-04-10T02:00:43.509Z,146679.72
2023-04-10T02:01:47.570Z,146637.50
2023-04-10T02:02:51.106Z,146643.53
2023-04-10T02:03:54.018Z,146648.34
2023-04-10T02:04:56.885Z,146643.53
2023-04-10T02:06:20.979Z,146667.69
2023-04-10T02:07:31.651Z,146671.28
2023-04-10T02:08:42.820Z,146668.88
2023-04-10T02:10:00.697Z,146667.69
2023-04-10T02:11:22.895Z,146680.94
2023-04-10T02:12:30.456Z,146658.03
2023-04-10T02:13:35.860Z,146651.97
2023-04-10T02:14:43.062Z,146665.25
2023-04-10T02:15:47.904Z,146650.75
2023-04-10T02:16:54.583Z,146641.13
2023-04-10T02:18:00.020Z,146651.97
2023-04-10T02:19:04.055Z,146627.88
2023-04-10T02:20:09.234Z,146645.94
2023-04-10T02:21:11.876Z,146616.97
2023-04-10T02:22:17.738Z,146609.75
2023-04-10T02:23:21.246Z,146614.56
2023-04-10T02:24:23.874Z,146590.47
2023-04-10T02:25:26.500Z,146592.88
2023-04-10T02:26:29.031Z,146590.47
2023-04-10T02:27:36.567Z,146594.06
2023-04-10T02:28:40.320Z,146571.13
2023-04-10T02:29:42.823Z,146553.03
2023-04-10T02:30:45.462Z,146549.41
2023-04-10T02:31:49.216Z,146539.78
2023-04-10T02:32:51.909Z,146521.59
2023-04-10T02:33:54.624Z,146537.38
2023-04-10T02:34:57.706Z,146530.13
2023-04-10T02:36:03.130Z,146551.81
2023-04-10T02:37:05.627Z,146527.72
2023-04-10T02:38:08.185Z,146524.03
2023-04-10T02:39:13.204Z,146547.00
2023-04-10T02:40:23.754Z,146549.41
2023-04-10T02:41:38.628Z,146547.00
2023-04-10T02:42:41.638Z,146542.19
2023-04-10T02:43:44.166Z,146532.53
2023-04-10T02:44:48.236Z,146522.81
2023-04-10T02:45:51.374Z,146498.72
2023-04-10T02:47:01.527Z,146481.81
2023-04-10T02:48:07.015Z,146485.44
2023-04-10T02:49:09.969Z,146481.81
2023-04-10T02:50:12.492Z,146478.19
2023-04-10T02:51:18.599Z,146491.44
2023-04-10T02:52:21.605Z,146478.19
2023-04-10T02:53:26.158Z,146479.41
2023-04-10T02:54:32.519Z,146475.78
2023-04-10T02:55:35.043Z,146477.00
2023-04-10T02:56:37.681Z,146455.28
2023-04-10T02:57:40.022Z,146448.03
2023-04-10T02:58:46.208Z,146455.28
2023-04-10T02:59:52.457Z,146504.75
2023-04-10T03:00:57.966Z,146477.00
2023-04-10T03:02:21.902Z,146487.84
2023-04-10T03:03:25.182Z,146497.50
2023-04-10T03:04:32.696Z,146511.97
2023-04-10T03:05:35.771Z,146480.59
2023-04-10T03:06:38.421Z,146491.44
2023-04-10T03:07:41.662Z,146513.16
2023-04-10T03:08:44.651Z,146522.81
2023-04-10T03:09:47.528Z,146520.41
2023-04-10T03:10:50.804Z,146524.03
2023-04-10T03:11:53.301Z,146515.59
2023-04-10T03:12:56.175Z,146530.13
2023-04-10T03:13:58.701Z,146543.38
2023-04-10T03:15:01.333Z,146542.19
2023-04-10T03:16:04.064Z,146530.13
2023-04-10T03:17:07.583Z,146525.28
2023-04-10T03:18:11.336Z,146534.94
2023-04-10T03:19:16.460Z,146551.81
2023-04-10T03:20:18.978Z,146548.19
2023-04-10T03:21:22.097Z,146551.81
2023-04-10T03:22:24.979Z,146540.97
2023-04-10T03:23:27.623Z,146539.78
2023-04-10T03:24:30.509Z,146534.94
2023-04-10T03:25:36.632Z,146571.13
2023-04-10T03:26:40.939Z,146534.94
2023-04-10T03:27:43.470Z,146516.78
2023-04-10T03:28:45.983Z,146525.28
2023-04-10T03:29:48.388Z,146542.19
2023-04-10T03:30:51.263Z,146539.78
2023-04-10T03:31:53.841Z,146544.59
2023-04-10T03:32:56.440Z,146537.38
2023-04-10T03:33:59.068Z,146537.38
2023-04-10T03:35:01.596Z,146536.16
2023-04-10T03:36:05.112Z,146537.38
2023-04-10T03:37:08.910Z,146526.50
2023-04-10T03:38:11.434Z,146522.81
2023-04-10T03:39:13.832Z,146536.16
2023-04-10T03:40:16.359Z,146534.94
2023-04-10T03:41:18.995Z,146537.38
2023-04-10T03:42:21.512Z,146525.28
2023-04-10T03:43:25.591Z,146544.59
2023-04-10T03:44:28.118Z,146527.72
2023-04-10T03:45:30.873Z,146513.16
2023-04-10T03:46:35.391Z,146534.94
2023-04-10T03:47:38.020Z,146537.38
2023-04-10T03:48:43.247Z,146534.94
2023-04-10T03:49:46.232Z,146525.28
2023-04-10T03:50:48.770Z,146520.41
2023-04-10T03:51:51.637Z,146515.59
2023-04-10T03:52:54.043Z,146496.31
2023-04-10T03:53:58.489Z,146496.31
2023-04-10T03:55:00.906Z,146496.31
2023-04-10T03:56:04.360Z,146501.13
2023-04-10T03:57:06.881Z,146522.81
2023-04-10T03:58:09.525Z,146532.53
2023-04-10T03:59:13.121Z,146542.19
2023-04-10T04:00:17.330Z,146530.13
2023-04-10T04:01:22.994Z,146531.34
2023-04-10T04:02:52.094Z,146522.81
2023-04-10T04:04:33.254Z,146537.38
2023-04-10T04:05:54.646Z,146525.28
2023-04-10T04:07:17.336Z,146539.78
2023-04-10T04:08:32.929Z,146540.97
2023-04-10T04:09:48.049Z,146518.00
2023-04-10T04:10:58.968Z,146510.75
2023-04-10T04:12:30.657Z,146503.53
2023-04-10T04:13:37.612Z,146509.56
2023-04-10T04:14:46.850Z,146527.72
2023-04-10T04:16:14.848Z,146505.94
2023-04-10T04:17:23.469Z,146503.53
2023-04-10T04:18:52.138Z,146498.72
2023-04-10T04:20:03.669Z,146502.34
2023-04-10T04:21:18.179Z,146505.94
2023-04-10T04:22:38.940Z,146518.00
2023-04-10T04:24:12.776Z,146473.38
2023-04-10T04:25:36.781Z,146481.81
2023-04-10T04:26:57.908Z,146504.75
2023-04-10T04:28:23.480Z,146489.03
2023-04-10T04:29:52.020Z,146477.00
2023-04-10T04:31:09.419Z,146460.13
2023-04-10T04:32:30.321Z,146490.25
2023-04-10T04:33:42.674Z,146458.88
2023-04-10T04:35:03.786Z,146440.81
2023-04-10T04:36:38.594Z,146436.00
2023-04-10T04:38:10.629Z,146426.31
2023-04-10T04:39:39.431Z,146409.47
2023-04-10T04:40:59.838Z,146401.03
2023-04-10T04:42:21.325Z,146390.16
2023-04-10T04:43:38.951Z,146386.53
2023-04-10T04:45:04.170Z,146399.81
2023-04-10T04:46:35.712Z,146393.75
2023-04-10T04:47:56.920Z,146403.44
2023-04-10T04:49:09.809Z,146402.22
2023-04-10T04:50:23.117Z,146411.88
2023-04-10T04:51:41.003Z,146399.81
2023-04-10T04:52:49.041Z,146407.06
2023-04-10T04:54:00.797Z,146407.06
2023-04-10T04:55:29.721Z,146411.88
2023-04-10T04:56:45.804Z,146426.31
2023-04-10T04:58:21.323Z,146460.13
2023-04-10T04:59:42.204Z,146479.41
2023-04-10T05:00:56.890Z,146501.13
2023-04-10T05:02:23.218Z,146510.75
2023-04-10T05:03:52.205Z,146520.41
2023-04-10T05:05:11.962Z,146545.78
2023-04-10T05:06:41.017Z,146550.63
2023-04-10T05:08:03.811Z,146566.31
2023-04-10T05:09:21.931Z,146571.13
2023-04-10T05:10:42.809Z,146615.75
2023-04-10T05:11:57.334Z,146609.75
2023-04-10T05:13:19.769Z,146609.75
2023-04-10T05:14:30.450Z,146614.56
2023-04-10T05:15:44.937Z,146630.28
2023-04-10T05:17:07.534Z,146641.13
2023-04-10T05:18:26.085Z,146647.13
2023-04-10T05:19:51.942Z,146644.72
2023-04-10T05:21:23.500Z,146645.94
2023-04-10T05:22:41.737Z,146660.44
2023-04-10T05:24:02.739Z,146659.25
2023-04-10T05:25:34.297Z,146673.69
2023-04-10T05:26:52.779Z,146679.72
2023-04-10T05:28:18.597Z,146707.50
2023-04-10T05:29:36.574Z,146720.81
2023-04-10T05:30:52.434Z,146725.63
2023-04-10T05:32:10.185Z,146761.81
2023-04-10T05:33:31.062Z,146771.47
2023-04-10T05:34:57.828Z,146783.53
2023-04-10T05:36:23.152Z,146800.44
2023-04-10T05:37:44.027Z,146870.47
2023-04-10T05:39:08.626Z,146847.53
2023-04-10T05:40:29.384Z,146880.13
2023-04-10T05:41:52.091Z,146894.66
2023-04-10T05:43:26.746Z,146909.13
2023-04-10T05:44:36.476Z,146934.50
2023-04-10T05:45:56.305Z,146977.97
2023-04-10T05:47:19.833Z,147000.94
2023-04-10T05:48:31.869Z,147013.03
2023-04-10T05:49:51.594Z,147058.94
2023-04-10T05:51:14.395Z,147080.69
2023-04-10T05:52:52.201Z,147117.00
2023-04-10T05:54:17.773Z,147119.41
2023-04-10T05:55:32.162Z,147183.47
2023-04-10T05:56:59.395Z,147206.41
2023-04-10T05:58:10.922Z,147218.50
2023-04-10T05:59:35.759Z,147245.13
2023-04-10T06:01:01.560Z,147283.81
2023-04-10T06:02:39.805Z,147253.56
2023-04-10T06:03:46.374Z,147264.44
2023-04-10T06:04:50.259Z,147274.13
2023-04-10T06:05:53.640Z,147283.81
2023-04-10T06:06:56.161Z,147308.00
2023-04-10T06:07:58.727Z,147312.81
2023-04-10T06:09:01.329Z,147344.28
2023-04-10T06:10:04.214Z,147369.63
2023-04-10T06:11:10.804Z,147346.69
2023-04-10T06:12:13.449Z,147349.09
2023-04-10T06:13:16.810Z,147352.72
2023-04-10T06:14:22.101Z,147397.44
2023-04-10T06:15:26.420Z,147398.66
2023-04-10T06:16:29.053Z,147390.19
2023-04-10T06:17:31.636Z,147396.25
2023-04-10T06:18:34.335Z,147419.25
2023-04-10T06:19:36.737Z,147407.16
2023-04-10T06:20:39.255Z,147437.41
2023-04-10T06:21:41.771Z,147431.31
2023-04-10T06:22:44.299Z,147489.41
2023-04-10T06:23:47.055Z,147497.84
2023-04-10T06:24:49.583Z,147514.81
2023-04-10T06:25:52.210Z,147588.66
2023-04-10T06:26:54.617Z,147628.59
2023-04-10T06:27:57.382Z,147626.16
2023-04-10T06:29:00.498Z,147666.16
2023-04-10T06:30:03.257Z,147691.53
2023-04-10T06:31:09.159Z,147777.50
2023-04-10T06:32:14.782Z,147754.50
2023-04-10T06:33:17.309Z,147776.31
2023-04-10T06:34:21.139Z,147784.75
2023-04-10T06:35:37.815Z,147835.63
2023-04-10T06:36:40.821Z,147857.41
2023-04-10T06:37:43.833Z,147851.38
2023-04-10T06:38:46.473Z,147864.72
2023-04-10T06:39:49.361Z,147876.81
2023-04-10T06:40:51.873Z,147920.41
2023-04-10T06:41:54.535Z,147968.94
2023-04-10T06:43:23.188Z,148017.38
2023-04-10T06:44:25.713Z,148074.31
2023-04-10T06:45:28.240Z,148005.25
2023-04-10T06:46:30.913Z,148082.78
2023-04-10T06:47:33.664Z,148126.47
2023-04-10T06:48:36.279Z,148157.97
2023-04-10T06:49:38.793Z,148228.28
2023-04-10T06:50:41.435Z,148200.38
2023-04-10T06:51:45.885Z,148237.97
2023-04-10T06:52:48.659Z,148311.97
2023-04-10T06:53:51.156Z,148339.88
2023-04-10T06:54:53.684Z,148436.91
2023-04-10T06:55:57.185Z,148487.88
2023-04-10T06:56:59.680Z,148526.69
2023-04-10T06:58:02.110Z,148538.78
2023-04-10T06:59:06.534Z,148601.94
2023-04-10T07:00:09.641Z,148629.88
2023-04-10T07:01:12.184Z,148626.22
2023-04-10T07:02:14.750Z,148703.91
2023-04-10T07:03:17.242Z,148746.41
2023-04-10T07:04:19.844Z,148776.78
2023-04-10T07:05:22.498Z,148779.19
2023-04-10T07:06:25.008Z,148805.88
2023-04-10T07:07:28.608Z,148792.53
2023-04-10T07:08:31.126Z,148900.66
2023-04-10T07:09:33.526Z,148971.09
2023-04-10T07:10:36.407Z,148833.88
2023-04-10T07:11:38.939Z,148895.81
2023-04-10T07:12:41.449Z,148819.25
2023-04-10T07:13:43.851Z,148844.81
2023-04-10T07:14:46.262Z,148869.06
2023-04-10T07:15:48.771Z,149013.66
2023-04-10T07:16:51.486Z,149233.63
2023-04-10T07:17:53.986Z,149209.34
2023-04-10T07:18:56.850Z,149300.53
2023-04-10T07:19:59.573Z,149414.88
2023-04-10T07:21:02.454Z,149596.19
2023-04-10T07:22:04.982Z,149768.97
2023-04-10T07:23:07.502Z,149659.41
2023-04-10T07:24:09.904Z,149787.28
2023-04-10T07:25:12.442Z,149983.31
2023-04-10T07:26:15.063Z,150119.81
2023-04-10T07:27:17.576Z,150174.63
2023-04-10T07:28:19.979Z,150149.00
2023-04-10T07:29:22.383Z,149968.72
2023-04-10T07:30:24.906Z,149941.91
2023-04-10T07:31:28.262Z,149686.19
2023-04-10T07:32:31.038Z,149602.25
2023-04-10T07:33:33.691Z,149467.19
2023-04-10T07:34:36.784Z,149318.75
2023-04-10T07:35:39.223Z,149264.03
2023-04-10T07:36:41.709Z,149221.50
2023-04-10T07:37:44.362Z,149176.53
2023-04-10T07:38:46.993Z,149121.81
2023-04-10T07:39:49.391Z,149085.31
2023-04-10T07:41:01.275Z,148982.06
2023-04-10T07:42:03.923Z,148827.75
2023-04-10T07:43:06.320Z,148784.06
2023-04-10T07:44:09.071Z,148814.41
2023-04-10T07:45:11.710Z,148866.66
2023-04-10T07:46:14.420Z,148839.94
2023-04-10T07:47:16.991Z,148915.25
2023-04-10T07:48:19.640Z,148870.28
2023-04-10T07:49:22.998Z,148915.25
2023-04-10T07:50:25.797Z,148866.66
2023-04-10T07:51:29.150Z,148897.00
2023-04-10T07:52:31.657Z,148931.03
2023-04-10T07:53:34.158Z,148958.97
2023-04-10T07:54:36.826Z,148955.31
2023-04-10T07:55:43.548Z,149003.91
2023-04-10T07:56:46.174Z,148978.41
2023-04-10T07:57:52.397Z,149000.25
2023-04-10T07:58:55.253Z,149070.75
2023-04-10T07:59:58.037Z,149101.16
2023-04-10T08:01:00.566Z,149114.53
2023-04-10T08:02:03.207Z,149115.75
2023-04-10T08:03:06.817Z,149160.72
2023-04-10T08:04:09.703Z,149033.06
2023-04-10T08:05:12.468Z,149123.03
2023-04-10T08:06:15.087Z,149034.28
2023-04-10T08:07:21.445Z,149090.19
2023-04-10T08:08:23.854Z,149113.34
2023-04-10T08:09:26.491Z,149096.28
2023-04-10T08:10:29.008Z,149039.19
2023-04-10T08:11:35.283Z,149051.31
2023-04-10T08:12:39.094Z,148971.09
2023-04-10T08:13:41.485Z,149064.66
2023-04-10T08:14:45.109Z,149141.28
2023-04-10T08:15:47.609Z,149041.59
2023-04-10T08:16:50.138Z,149080.47
2023-04-10T08:17:54.013Z,149031.84
2023-04-10T08:18:58.056Z,149084.13
2023-04-10T08:20:00.700Z,149053.75
2023-04-10T08:21:03.227Z,149081.69
2023-04-10T08:22:06.091Z,149144.94
2023-04-10T08:23:19.642Z,149198.38
2023-04-10T08:24:23.492Z,149268.94
2023-04-10T08:25:26.010Z,149384.47
2023-04-10T08:26:29.404Z,149417.28
2023-04-10T08:27:31.894Z,149468.41
2023-04-10T08:28:34.417Z,149502.47
2023-04-10T08:29:36.824Z,149462.28
2023-04-10T08:30:39.566Z,149530.44
2023-04-10T08:31:42.221Z,149542.59
2023-04-10T08:32:44.666Z,149545.03
2023-04-10T08:33:47.860Z,149459.84
2023-04-10T08:34:51.346Z,149464.75
2023-04-10T08:35:54.008Z,149467.19
2023-04-10T08:36:57.353Z,149422.16
2023-04-10T08:38:12.292Z,149394.19
2023-04-10T08:39:16.310Z,149395.38
2023-04-10T08:40:18.828Z,149369.88
2023-04-10T08:41:22.203Z,149279.84
2023-04-10T08:42:26.048Z,149315.09
2023-04-10T08:43:28.908Z,149262.81
2023-04-10T08:44:31.434Z,149215.41
2023-04-10T08:45:34.084Z,149245.81
2023-04-10T08:46:42.158Z,149337.06
2023-04-10T08:47:48.295Z,149317.53
2023-04-10T08:49:00.838Z,149420.94
2023-04-10T08:50:07.236Z,149382.03
2023-04-10T08:51:19.801Z,149455.00
2023-04-10T08:52:25.795Z,149503.66
2023-04-10T08:53:31.191Z,149532.88
2023-04-10T08:54:36.124Z,149455.00
2023-04-10T08:55:40.580Z,149510.97
2023-04-10T08:56:47.174Z,149429.44
2023-04-10T08:58:00.571Z,149401.50
2023-04-10T08:59:04.206Z,149397.81
2023-04-10T09:01:30.043Z,149626.56
2023-04-10T09:02:32.646Z,149657.00
2023-04-10T09:03:35.622Z,149625.34
2023-04-10T09:04:38.469Z,149569.41
2023-04-10T09:05:41.184Z,149635.13
2023-04-10T09:06:43.940Z,149625.34
2023-04-10T09:07:46.449Z,149581.56
2023-04-10T09:08:48.976Z,149570.63
2023-04-10T09:09:51.480Z,149599.84
2023-04-10T09:10:54.558Z,149579.13
2023-04-10T09:12:01.549Z,149501.25
2023-04-10T09:13:04.346Z,149467.19
2023-04-10T09:14:22.097Z,149463.53
2023-04-10T09:15:24.728Z,149497.59
2023-04-10T09:16:30.485Z,149493.91
2023-04-10T09:17:33.915Z,149486.63
2023-04-10T09:18:44.290Z,149546.22
2023-04-10T09:19:54.502Z,149540.16
2023-04-10T09:21:07.084Z,149512.19
2023-04-10T09:22:11.287Z,149462.28
2023-04-10T09:23:22.328Z,149584.00
2023-04-10T09:24:26.199Z,149587.63
2023-04-10T09:25:33.248Z,149524.31
2023-04-10T09:26:36.615Z,149506.09
2023-04-10T09:27:40.491Z,149584.00
2023-04-10T09:29:02.575Z,149715.41
2023-04-10T09:30:06.836Z,149689.84
2023-04-10T09:31:35.968Z,149647.28
2023-04-10T09:32:46.763Z,149541.38
2023-04-10T09:33:49.093Z,149559.59
2023-04-10T09:34:58.577Z,149629.03
2023-04-10T09:36:01.528Z,149620.50
2023-04-10T09:37:03.993Z,149737.34
2023-04-10T09:38:22.053Z,149676.47
2023-04-10T09:39:36.144Z,149747.06
2023-04-10T09:40:38.663Z,149695.97
2023-04-10T09:41:51.688Z,149803.13
2023-04-10T09:42:56.225Z,149839.63
2023-04-10T09:44:20.186Z,149793.38
2023-04-10T09:45:23.133Z,149761.69
2023-04-10T09:46:28.912Z,149839.63
2023-04-10T09:47:31.897Z,149807.97
2023-04-10T09:48:34.582Z,149985.72
2023-04-10T09:49:48.434Z,150151.44
2023-04-10T09:50:51.507Z,150268.50
2023-04-10T09:51:53.929Z,150380.66
2023-04-10T09:52:59.077Z,150528.22
2023-04-10T09:54:03.045Z,150738.03
2023-04-10T09:55:08.680Z,150886.97
2023-04-10T09:56:11.670Z,150978.59
2023-04-10T09:57:20.551Z,150849.16
2023-04-10T09:58:25.373Z,150712.47
2023-04-10T09:59:27.990Z,150731.94
2023-04-10T10:00:30.392Z,150519.69
2023-04-10T10:01:37.297Z,150492.84
2023-04-10T10:02:40.644Z,150502.59
2023-04-10T10:03:44.109Z,150517.25
2023-04-10T10:04:48.264Z,150334.31
2023-04-10T10:05:51.924Z,150436.75
2023-04-10T10:06:55.000Z,150261.19
2023-04-10T10:07:58.121Z,150397.75
2023-04-10T10:09:05.342Z,150453.84
2023-04-10T10:10:11.101Z,150366.00
2023-04-10T10:11:15.888Z,150334.31
2023-04-10T10:12:40.597Z,150294.09
2023-04-10T10:13:57.078Z,150052.78
2023-04-10T10:15:19.965Z,150054.00
2023-04-10T10:16:25.870Z,150170.97
2023-04-10T10:17:34.872Z,150149.00
2023-04-10T10:18:45.887Z,150199.03
2023-04-10T10:20:02.482Z,150117.34
2023-04-10T10:21:05.689Z,150156.34
2023-04-10T10:22:09.888Z,150194.16
2023-04-10T10:23:13.735Z,150258.75
2023-04-10T10:24:17.232Z,150419.72
2023-04-10T10:25:22.986Z,150500.16
2023-04-10T10:26:25.857Z,150417.28
2023-04-10T10:27:31.973Z,150201.47
2023-04-10T10:28:36.175Z,150112.47
2023-04-10T10:29:39.776Z,150088.13
2023-04-10T10:30:42.668Z,150145.38
2023-04-10T10:31:47.174Z,150107.59
2023-04-10T10:32:51.087Z,150152.72
2023-04-10T10:33:54.692Z,150164.88
2023-04-10T10:34:57.780Z,150200.25
2023-04-10T10:36:01.510Z,150185.59
2023-04-10T10:37:05.225Z,150212.44
2023-04-10T10:38:08.343Z,150153.94
2023-04-10T10:39:27.544Z,150222.22
2023-04-10T10:40:41.507Z,150217.28
2023-04-10T10:41:54.347Z,150124.69
2023-04-10T10:43:19.869Z,150180.69
2023-04-10T10:44:43.144Z,150071.06
2023-04-10T10:45:57.621Z,150022.38
2023-04-10T10:47:29.248Z,150039.38
2023-04-10T10:48:31.761Z,149990.69
2023-04-10T10:49:57.087Z,150134.41
2023-04-10T10:51:02.284Z,150292.88
2023-04-10T10:52:04.994Z,150373.31
2023-04-10T10:53:07.513Z,150457.50
2023-04-10T10:54:33.193Z,150541.63
2023-04-10T10:55:35.724Z,150431.88
2023-04-10T10:56:38.243Z,150331.88
2023-04-10T10:57:47.604Z,150358.72
2023-04-10T10:58:59.840Z,150309.91
2023-04-10T11:00:02.611Z,150309.91
2023-04-10T11:01:08.507Z,150353.84
2023-04-10T11:02:19.063Z,150157.56
2023-04-10T11:03:22.671Z,149939.47
2023-04-10T11:04:48.461Z,149871.28
2023-04-10T11:06:13.042Z,150047.91
2023-04-10T11:07:16.773Z,150068.63
2023-04-10T11:08:47.667Z,150095.44
2023-04-10T11:09:54.930Z,150006.50
2023-04-10T11:11:08.066Z,149884.66
2023-04-10T11:12:10.887Z,149910.25
2023-04-10T11:13:17.984Z,149935.81
2023-04-10T11:14:21.618Z,149834.78
2023-04-10T11:15:25.531Z,149845.72
2023-04-10T11:16:31.738Z,149834.78
2023-04-10T11:17:51.403Z,149739.78
2023-04-10T11:19:06.337Z,149728.84
2023-04-10T11:20:17.013Z,149722.72
2023-04-10T11:21:23.401Z,149759.25
2023-04-10T11:22:26.021Z,149755.56
2023-04-10T11:23:28.566Z,149770.19
2023-04-10T11:25:00.732Z,149784.84
2023-04-10T11:26:03.699Z,149797.03
2023-04-10T11:27:07.188Z,149805.56
2023-04-10T11:28:09.695Z,149781.19
2023-04-10T11:29:17.885Z,149764.13
2023-04-10T11:30:30.585Z,149895.66
2023-04-10T11:31:34.358Z,150022.38
2023-04-10T11:32:43.450Z,150166.09
2023-04-10T11:33:48.002Z,150285.59
2023-04-10T11:34:50.615Z,150368.44
2023-04-10T11:35:53.168Z,150341.63
2023-04-10T11:36:55.898Z,150351.41
2023-04-10T11:38:11.626Z,150436.75
2023-04-10T11:39:18.752Z,150464.81
2023-04-10T11:40:21.577Z,150391.66
2023-04-10T11:41:32.158Z,150527.00
2023-04-10T11:42:34.656Z,150416.06
2023-04-10T11:43:37.301Z,150451.41
2023-04-10T11:44:40.922Z,150500.16
2023-04-10T11:45:43.616Z,150551.41
2023-04-10T11:46:47.421Z,150678.25
2023-04-10T11:47:54.130Z,150614.88
2023-04-10T11:49:01.474Z,150567.28
2023-04-10T11:50:04.186Z,150534.31
2023-04-10T11:51:08.768Z,150583.16
2023-04-10T11:52:11.268Z,150455.06
2023-04-10T11:53:21.626Z,150557.50
2023-04-10T11:54:29.158Z,150400.19
2023-04-10T11:55:38.391Z,150484.34
2023-04-10T11:56:42.346Z,150631.94
2023-04-10T11:57:46.127Z,150705.09
2023-04-10T11:58:51.165Z,150716.13
2023-04-10T11:59:53.752Z,150588.03
2023-04-10T12:01:01.674Z,150553.84
2023-04-10T12:02:14.731Z,150675.81
2023-04-10T12:03:17.737Z,150612.38
2023-04-10T12:04:21.989Z,150553.84
2023-04-10T12:05:24.602Z,150617.31
2023-04-10T12:06:31.312Z,150622.19
2023-04-10T12:07:33.834Z,150516.03
2023-04-10T12:08:46.099Z,150417.28
2023-04-10T12:09:56.994Z,150294.09
2023-04-10T12:11:00.479Z,150339.19
2023-04-10T12:12:07.660Z,150347.69
2023-04-10T12:13:25.206Z,150183.13
2023-04-10T12:14:33.120Z,150244.13
2023-04-10T12:15:35.694Z,150344.06
2023-04-10T12:16:38.521Z,150238.03
2023-04-10T12:17:41.439Z,150288.00
2023-04-10T12:18:45.417Z,150422.16
2023-04-10T12:19:47.884Z,150405.06
2023-04-10T12:20:51.964Z,150383.16
2023-04-10T12:21:55.223Z,150234.38
2023-04-10T12:23:01.382Z,150174.63
2023-04-10T12:24:05.527Z,150170.97
2023-04-10T12:25:12.382Z,150212.44
2023-04-10T12:26:16.804Z,150222.22
2023-04-10T12:27:25.579Z,150207.56
2023-04-10T12:28:28.093Z,150210.00
2023-04-10T12:29:30.608Z,150149.00
2023-04-10T12:30:33.134Z,150218.56
2023-04-10T12:31:37.194Z,150294.09
2023-04-10T12:32:39.994Z,150320.94
2023-04-10T12:33:46.580Z,150341.63
2023-04-10T12:34:52.829Z,150221.00
2023-04-10T12:35:55.477Z,150100.31
2023-04-10T12:36:58.219Z,150094.22
2023-04-10T12:38:00.741Z,150023.59
2023-04-10T12:39:04.610Z,149971.13
2023-04-10T12:40:07.944Z,149980.88
2023-04-10T12:41:11.499Z,149963.84
2023-04-10T12:42:20.913Z,150038.16
2023-04-10T12:43:38.424Z,150116.13
2023-04-10T12:44:54.759Z,150131.97
2023-04-10T12:45:57.999Z,150153.94
2023-04-10T12:47:02.008Z,150248.97
2023-04-10T12:48:04.646Z,150216.06
2023-04-10T12:49:10.109Z,150161.22
2023-04-10T12:50:15.633Z,150125.91
2023-04-10T12:51:18.272Z,150124.69
2023-04-10T12:52:23.575Z,150149.00
2023-04-10T12:53:27.397Z,150084.44
2023-04-10T12:54:37.365Z,150093.00
2023-04-10T12:55:40.241Z,149971.13